sensor_id;sensor_type;location;lat;lon;timestamp;P1;durP1;ratioP1;P2;durP2;ratioP2
8401;SDS011;4238;48.404;9.498;2023-02-21T00:00:16;1.50;;;1.40;;
8401;SDS011;4238;48.404;9.498;2023-02-21T00:03:00;1.80;;;1.70;;
8401;SDS011;4238;48.404;9.498;2023-02-21T00:05:46;1.87;;;1.60;;
8401;SDS011;4238;48.404;9.498;2023-02-21T00:08:30;1.73;;;1.60;;
8401;SDS011;4238;48.404;9.498;2023-02-21T00:11:14;3.17;;;1.80;;
8401;SDS011;4238;48.404;9.498;2023-02-21T00:13:58;1.50;;;1.40;;
8401;SDS011;4238;48.404;9.498;2023-02-21T00:16:42;1.87;;;1.77;;
8401;SDS011;4238;48.404;9.498;2023-02-21T00:19:27;2.43;;;2.23;;
8401;SDS011;4238;48.404;9.498;2023-02-21T00:22:12;1.90;;;1.70;;
8401;SDS011;4238;48.404;9.498;2023-02-21T00:24:58;2.00;;;1.43;;
8401;SDS011;4238;48.404;9.498;2023-02-21T00:27:42;1.40;;;1.30;;
8401;SDS011;4238;48.404;9.498;2023-02-21T00:30:27;2.20;;;1.80;;
8401;SDS011;4238;48.404;9.498;2023-02-21T00:33:11;2.53;;;1.80;;
8401;SDS011;4238;48.404;9.498;2023-02-21T00:35:55;1.90;;;1.80;;
8401;SDS011;4238;48.404;9.498;2023-02-21T00:38:40;2.30;;;1.90;;
8401;SDS011;4238;48.404;9.498;2023-02-21T00:41:25;1.53;;;1.43;;
8401;SDS011;4238;48.404;9.498;2023-02-21T00:44:09;3.10;;;2.00;;
8401;SDS011;4238;48.404;9.498;2023-02-21T00:46:53;1.90;;;1.80;;
8401;SDS011;4238;48.404;9.498;2023-02-21T00:49:37;4.17;;;2.17;;
8401;SDS011;4238;48.404;9.498;2023-02-21T00:52:22;2.70;;;2.20;;
8401;SDS011;4238;48.404;9.498;2023-02-21T00:55:07;2.40;;;2.10;;
8401;SDS011;4238;48.404;9.498;2023-02-21T00:57:51;1.50;;;1.40;;
8401;SDS011;4238;48.404;9.498;2023-02-21T01:00:35;2.17;;;2.07;;
8401;SDS011;4238;48.404;9.498;2023-02-21T01:03:19;3.40;;;2.30;;
8401;SDS011;4238;48.404;9.498;2023-02-21T01:06:07;2.13;;;1.70;;
8401;SDS011;4238;48.404;9.498;2023-02-21T01:08:52;2.40;;;1.67;;
8401;SDS011;4238;48.404;9.498;2023-02-21T01:11:38;1.90;;;1.63;;
8401;SDS011;4238;48.404;9.498;2023-02-21T01:14:22;2.00;;;1.90;;
8401;SDS011;4238;48.404;9.498;2023-02-21T01:17:06;3.43;;;2.43;;
8401;SDS011;4238;48.404;9.498;2023-02-21T01:19:51;2.40;;;2.20;;
8401;SDS011;4238;48.404;9.498;2023-02-21T01:22:35;2.17;;;2.07;;
8401;SDS011;4238;48.404;9.498;2023-02-21T01:25:19;2.07;;;1.93;;
8401;SDS011;4238;48.404;9.498;2023-02-21T01:28:05;4.63;;;2.57;;
8401;SDS011;4238;48.404;9.498;2023-02-21T01:30:49;2.27;;;2.17;;
8401;SDS011;4238;48.404;9.498;2023-02-21T01:33:34;2.30;;;2.20;;
8401;SDS011;4238;48.404;9.498;2023-02-21T01:36:19;3.43;;;2.40;;
8401;SDS011;4238;48.404;9.498;2023-02-21T01:39:04;2.97;;;2.63;;
8401;SDS011;4238;48.404;9.498;2023-02-21T01:41:48;3.37;;;2.73;;
8401;SDS011;4238;48.404;9.498;2023-02-21T01:44:35;3.17;;;2.77;;
8401;SDS011;4238;48.404;9.498;2023-02-21T01:47:21;2.23;;;2.03;;
8401;SDS011;4238;48.404;9.498;2023-02-21T01:50:06;3.67;;;2.63;;
8401;SDS011;4238;48.404;9.498;2023-02-21T01:52:54;3.17;;;2.97;;
8401;SDS011;4238;48.404;9.498;2023-02-21T01:55:39;2.97;;;2.67;;
8401;SDS011;4238;48.404;9.498;2023-02-21T01:58:26;3.57;;;2.63;;
8401;SDS011;4238;48.404;9.498;2023-02-21T02:01:16;3.13;;;2.83;;
8401;SDS011;4238;48.404;9.498;2023-02-21T02:04:07;2.93;;;2.73;;
8401;SDS011;4238;48.404;9.498;2023-02-21T02:06:51;3.40;;;3.10;;
8401;SDS011;4238;48.404;9.498;2023-02-21T02:09:36;2.80;;;2.60;;
8401;SDS011;4238;48.404;9.498;2023-02-21T02:12:29;3.70;;;2.13;;
8401;SDS011;4238;48.404;9.498;2023-02-21T02:15:22;1.37;;;1.30;;
8401;SDS011;4238;48.404;9.498;2023-02-21T02:18:08;1.70;;;1.60;;
8401;SDS011;4238;48.404;9.498;2023-02-21T02:24:09;1.50;;;1.40;;
8401;SDS011;4238;48.404;9.498;2023-02-21T02:30:15;1.80;;;1.70;;
8401;SDS011;4238;48.404;9.498;2023-02-21T02:33:20;3.00;;;2.00;;
8401;SDS011;4238;48.404;9.498;2023-02-21T02:36:09;1.30;;;1.30;;
8401;SDS011;4238;48.404;9.498;2023-02-21T02:38:42;1.97;;;1.73;;
8401;SDS011;4238;48.404;9.498;2023-02-21T02:41:15;1.60;;;1.43;;
8401;SDS011;4238;48.404;9.498;2023-02-21T02:43:47;2.10;;;1.90;;
8401;SDS011;4238;48.404;9.498;2023-02-21T02:46:18;3.20;;;2.00;;
8401;SDS011;4238;48.404;9.498;2023-02-21T02:48:49;2.77;;;1.73;;
8401;SDS011;4238;48.404;9.498;2023-02-21T02:51:22;3.67;;;1.77;;
8401;SDS011;4238;48.404;9.498;2023-02-21T02:53:51;2.53;;;2.33;;
8401;SDS011;4238;48.404;9.498;2023-02-21T02:56:18;2.87;;;2.67;;
8401;SDS011;4238;48.404;9.498;2023-02-21T02:58:49;2.90;;;2.40;;
8401;SDS011;4238;48.404;9.498;2023-02-21T03:01:23;2.97;;;2.77;;
8401;SDS011;4238;48.404;9.498;2023-02-21T03:04:25;2.70;;;2.43;;
8401;SDS011;4238;48.404;9.498;2023-02-21T03:07:13;2.40;;;2.20;;
8401;SDS011;4238;48.404;9.498;2023-02-21T03:09:50;3.53;;;2.30;;
8401;SDS011;4238;48.404;9.498;2023-02-21T03:12:28;2.33;;;2.13;;
8401;SDS011;4238;48.404;9.498;2023-02-21T03:15:01;3.03;;;2.77;;
8401;SDS011;4238;48.404;9.498;2023-02-21T03:17:30;7.23;;;2.53;;
8401;SDS011;4238;48.404;9.498;2023-02-21T03:20:03;2.60;;;2.40;;
8401;SDS011;4238;48.404;9.498;2023-02-21T03:22:33;2.93;;;2.50;;
8401;SDS011;4238;48.404;9.498;2023-02-21T03:25:00;2.10;;;2.00;;
8401;SDS011;4238;48.404;9.498;2023-02-21T03:27:29;3.10;;;2.90;;
8401;SDS011;4238;48.404;9.498;2023-02-21T03:29:59;3.67;;;2.43;;
8401;SDS011;4238;48.404;9.498;2023-02-21T03:32:29;5.07;;;2.97;;
8401;SDS011;4238;48.404;9.498;2023-02-21T03:34:58;4.37;;;2.83;;
8401;SDS011;4238;48.404;9.498;2023-02-21T03:37:28;2.67;;;2.47;;
8401;SDS011;4238;48.404;9.498;2023-02-21T03:39:58;4.43;;;3.13;;
8401;SDS011;4238;48.404;9.498;2023-02-21T03:42:26;3.57;;;2.83;;
8401;SDS011;4238;48.404;9.498;2023-02-21T03:44:53;3.27;;;2.87;;
8401;SDS011;4238;48.404;9.498;2023-02-21T03:47:20;6.07;;;3.30;;
8401;SDS011;4238;48.404;9.498;2023-02-21T03:49:47;4.30;;;2.77;;
8401;SDS011;4238;48.404;9.498;2023-02-21T03:52:13;2.57;;;2.23;;
8401;SDS011;4238;48.404;9.498;2023-02-21T03:54:40;3.70;;;2.20;;
8401;SDS011;4238;48.404;9.498;2023-02-21T03:57:09;3.40;;;2.10;;
8401;SDS011;4238;48.404;9.498;2023-02-21T03:59:36;3.37;;;2.33;;
8401;SDS011;4238;48.404;9.498;2023-02-21T04:02:03;3.83;;;1.93;;
8401;SDS011;4238;48.404;9.498;2023-02-21T04:04:30;1.87;;;1.77;;
8401;SDS011;4238;48.404;9.498;2023-02-21T04:06:57;3.07;;;1.70;;
8401;SDS011;4238;48.404;9.498;2023-02-21T04:09:24;1.87;;;1.77;;
8401;SDS011;4238;48.404;9.498;2023-02-21T04:11:51;2.60;;;2.40;;
8401;SDS011;4238;48.404;9.498;2023-02-21T04:14:19;3.80;;;3.03;;
8401;SDS011;4238;48.404;9.498;2023-02-21T04:16:46;4.30;;;4.00;;
8401;SDS011;4238;48.404;9.498;2023-02-21T04:19:13;3.90;;;3.50;;
8401;SDS011;4238;48.404;9.498;2023-02-21T04:21:41;5.37;;;4.40;;
8401;SDS011;4238;48.404;9.498;2023-02-21T04:24:11;4.10;;;3.80;;
8401;SDS011;4238;48.404;9.498;2023-02-21T04:26:38;5.87;;;3.83;;
8401;SDS011;4238;48.404;9.498;2023-02-21T04:29:05;4.60;;;4.17;;
8401;SDS011;4238;48.404;9.498;2023-02-21T04:31:33;5.17;;;4.53;;
8401;SDS011;4238;48.404;9.498;2023-02-21T04:34:00;4.63;;;3.93;;
8401;SDS011;4238;48.404;9.498;2023-02-21T04:36:27;6.53;;;5.30;;
8401;SDS011;4238;48.404;9.498;2023-02-21T04:38:54;6.07;;;5.30;;
8401;SDS011;4238;48.404;9.498;2023-02-21T04:41:21;6.00;;;5.40;;
8401;SDS011;4238;48.404;9.498;2023-02-21T04:43:48;5.03;;;4.53;;
8401;SDS011;4238;48.404;9.498;2023-02-21T04:46:17;5.80;;;4.70;;
8401;SDS011;4238;48.404;9.498;2023-02-21T04:48:45;4.17;;;3.67;;
8401;SDS011;4238;48.404;9.498;2023-02-21T04:51:14;4.00;;;3.70;;
8401;SDS011;4238;48.404;9.498;2023-02-21T04:53:43;5.23;;;3.17;;
8401;SDS011;4238;48.404;9.498;2023-02-21T04:56:11;3.90;;;3.47;;
8401;SDS011;4238;48.404;9.498;2023-02-21T04:58:38;4.50;;;3.40;;
8401;SDS011;4238;48.404;9.498;2023-02-21T05:01:06;3.27;;;2.50;;
8401;SDS011;4238;48.404;9.498;2023-02-21T05:03:33;2.33;;;2.23;;
8401;SDS011;4238;48.404;9.498;2023-02-21T05:06:01;4.23;;;3.30;;
8401;SDS011;4238;48.404;9.498;2023-02-21T05:08:28;3.07;;;2.87;;
8401;SDS011;4238;48.404;9.498;2023-02-21T05:10:55;3.40;;;3.17;;
8401;SDS011;4238;48.404;9.498;2023-02-21T05:13:22;2.97;;;2.77;;
8401;SDS011;4238;48.404;9.498;2023-02-21T05:15:49;3.80;;;2.63;;
8401;SDS011;4238;48.404;9.498;2023-02-21T05:18:15;4.27;;;3.20;;
8401;SDS011;4238;48.404;9.498;2023-02-21T05:20:46;4.63;;;3.00;;
8401;SDS011;4238;48.404;9.498;2023-02-21T05:23:15;2.20;;;2.00;;
8401;SDS011;4238;48.404;9.498;2023-02-21T05:25:43;2.37;;;2.10;;
8401;SDS011;4238;48.404;9.498;2023-02-21T05:28:10;2.10;;;2.00;;
8401;SDS011;4238;48.404;9.498;2023-02-21T05:30:37;2.10;;;1.50;;
8401;SDS011;4238;48.404;9.498;2023-02-21T05:33:04;1.87;;;1.73;;
8401;SDS011;4238;48.404;9.498;2023-02-21T05:35:31;2.40;;;2.20;;
8401;SDS011;4238;48.404;9.498;2023-02-21T05:37:57;2.80;;;2.60;;
8401;SDS011;4238;48.404;9.498;2023-02-21T05:40:26;1.83;;;1.73;;
8401;SDS011;4238;48.404;9.498;2023-02-21T05:42:52;3.23;;;2.40;;
8401;SDS011;4238;48.404;9.498;2023-02-21T05:45:19;4.10;;;2.93;;
8401;SDS011;4238;48.404;9.498;2023-02-21T05:47:46;3.10;;;2.80;;
8401;SDS011;4238;48.404;9.498;2023-02-21T05:50:13;3.37;;;3.00;;
8401;SDS011;4238;48.404;9.498;2023-02-21T05:52:40;2.83;;;2.63;;
8401;SDS011;4238;48.404;9.498;2023-02-21T05:55:07;3.50;;;3.03;;
8401;SDS011;4238;48.404;9.498;2023-02-21T05:57:37;3.60;;;3.30;;
8401;SDS011;4238;48.404;9.498;2023-02-21T06:00:05;3.40;;;3.13;;
8401;SDS011;4238;48.404;9.498;2023-02-21T06:02:33;3.90;;;3.23;;
8401;SDS011;4238;48.404;9.498;2023-02-21T06:04:59;3.20;;;3.00;;
8401;SDS011;4238;48.404;9.498;2023-02-21T06:07:26;3.60;;;3.30;;
8401;SDS011;4238;48.404;9.498;2023-02-21T06:09:53;8.33;;;6.40;;
8401;SDS011;4238;48.404;9.498;2023-02-21T06:12:21;7.73;;;6.57;;
8401;SDS011;4238;48.404;9.498;2023-02-21T06:14:49;6.70;;;5.27;;
8401;SDS011;4238;48.404;9.498;2023-02-21T06:17:16;6.17;;;4.60;;
8401;SDS011;4238;48.404;9.498;2023-02-21T06:19:43;5.77;;;5.20;;
8401;SDS011;4238;48.404;9.498;2023-02-21T06:22:09;6.43;;;4.60;;
8401;SDS011;4238;48.404;9.498;2023-02-21T06:24:36;7.67;;;5.23;;
8401;SDS011;4238;48.404;9.498;2023-02-21T06:27:03;5.77;;;4.77;;
8401;SDS011;4238;48.404;9.498;2023-02-21T06:29:30;7.43;;;6.63;;
8401;SDS011;4238;48.404;9.498;2023-02-21T06:31:59;7.40;;;6.70;;
8401;SDS011;4238;48.404;9.498;2023-02-21T06:34:26;6.97;;;6.00;;
8401;SDS011;4238;48.404;9.498;2023-02-21T06:36:54;5.97;;;5.30;;
8401;SDS011;4238;48.404;9.498;2023-02-21T06:39:21;6.50;;;5.80;;
8401;SDS011;4238;48.404;9.498;2023-02-21T06:41:48;6.30;;;5.70;;
8401;SDS011;4238;48.404;9.498;2023-02-21T06:44:17;6.80;;;6.10;;
8401;SDS011;4238;48.404;9.498;2023-02-21T06:46:44;7.00;;;6.40;;
8401;SDS011;4238;48.404;9.498;2023-02-21T06:49:12;8.03;;;6.97;;
8401;SDS011;4238;48.404;9.498;2023-02-21T06:51:39;8.00;;;6.63;;
8401;SDS011;4238;48.404;9.498;2023-02-21T06:54:07;7.57;;;6.33;;
8401;SDS011;4238;48.404;9.498;2023-02-21T06:56:35;6.40;;;5.80;;
8401;SDS011;4238;48.404;9.498;2023-02-21T06:59:02;6.40;;;5.80;;
8401;SDS011;4238;48.404;9.498;2023-02-21T07:01:30;5.87;;;5.23;;
8401;SDS011;4238;48.404;9.498;2023-02-21T07:03:57;5.17;;;4.67;;
8401;SDS011;4238;48.404;9.498;2023-02-21T07:06:25;4.93;;;4.50;;
8401;SDS011;4238;48.404;9.498;2023-02-21T07:08:52;4.80;;;4.00;;
8401;SDS011;4238;48.404;9.498;2023-02-21T07:11:19;4.63;;;4.10;;
8401;SDS011;4238;48.404;9.498;2023-02-21T07:13:48;3.70;;;3.40;;
8401;SDS011;4238;48.404;9.498;2023-02-21T07:16:15;4.33;;;3.77;;
8401;SDS011;4238;48.404;9.498;2023-02-21T07:18:43;3.83;;;3.50;;
8401;SDS011;4238;48.404;9.498;2023-02-21T07:21:10;3.63;;;3.33;;
8401;SDS011;4238;48.404;9.498;2023-02-21T07:23:38;5.07;;;3.33;;
8401;SDS011;4238;48.404;9.498;2023-02-21T07:26:05;4.10;;;3.70;;
8401;SDS011;4238;48.404;9.498;2023-02-21T07:28:32;3.70;;;3.30;;
8401;SDS011;4238;48.404;9.498;2023-02-21T07:30:59;3.20;;;2.90;;
8401;SDS011;4238;48.404;9.498;2023-02-21T07:33:26;6.87;;;3.80;;
8401;SDS011;4238;48.404;9.498;2023-02-21T07:35:52;5.10;;;4.60;;
8401;SDS011;4238;48.404;9.498;2023-02-21T07:38:20;9.87;;;5.90;;
8401;SDS011;4238;48.404;9.498;2023-02-21T07:40:50;6.00;;;5.10;;
8401;SDS011;4238;48.404;9.498;2023-02-21T07:43:19;4.53;;;4.13;;
8401;SDS011;4238;48.404;9.498;2023-02-21T07:45:46;6.17;;;4.43;;
8401;SDS011;4238;48.404;9.498;2023-02-21T07:48:13;7.73;;;6.83;;
8401;SDS011;4238;48.404;9.498;2023-02-21T07:50:40;16.57;;;12.80;;
8401;SDS011;4238;48.404;9.498;2023-02-21T07:53:07;12.50;;;9.90;;
8401;SDS011;4238;48.404;9.498;2023-02-21T07:55:35;12.30;;;9.77;;
8401;SDS011;4238;48.404;9.498;2023-02-21T07:58:03;12.00;;;10.27;;
8401;SDS011;4238;48.404;9.498;2023-02-21T08:00:30;11.77;;;8.27;;
8401;SDS011;4238;48.404;9.498;2023-02-21T08:02:57;12.03;;;9.53;;
8401;SDS011;4238;48.404;9.498;2023-02-21T08:05:24;5.27;;;4.77;;
8401;SDS011;4238;48.404;9.498;2023-02-21T08:07:51;4.20;;;3.90;;
8401;SDS011;4238;48.404;9.498;2023-02-21T08:10:20;4.80;;;4.40;;
8401;SDS011;4238;48.404;9.498;2023-02-21T08:12:48;6.67;;;6.07;;
8401;SDS011;4238;48.404;9.498;2023-02-21T08:15:16;13.07;;;9.43;;
8401;SDS011;4238;48.404;9.498;2023-02-21T08:17:46;13.93;;;8.80;;
8401;SDS011;4238;48.404;9.498;2023-02-21T08:20:13;8.93;;;8.00;;
8401;SDS011;4238;48.404;9.498;2023-02-21T08:22:40;8.73;;;7.33;;
8401;SDS011;4238;48.404;9.498;2023-02-21T08:25:08;7.33;;;6.60;;
8401;SDS011;4238;48.404;9.498;2023-02-21T08:27:37;7.73;;;7.00;;
8401;SDS011;4238;48.404;9.498;2023-02-21T08:30:05;9.93;;;8.10;;
8401;SDS011;4238;48.404;9.498;2023-02-21T08:32:34;10.13;;;8.80;;
8401;SDS011;4238;48.404;9.498;2023-02-21T08:35:01;12.57;;;9.80;;
8401;SDS011;4238;48.404;9.498;2023-02-21T08:37:30;9.50;;;7.67;;
8401;SDS011;4238;48.404;9.498;2023-02-21T08:40:00;8.33;;;7.23;;
8401;SDS011;4238;48.404;9.498;2023-02-21T08:42:28;9.47;;;7.90;;
8401;SDS011;4238;48.404;9.498;2023-02-21T08:44:55;11.30;;;8.80;;
8401;SDS011;4238;48.404;9.498;2023-02-21T08:47:22;10.30;;;8.70;;
8401;SDS011;4238;48.404;9.498;2023-02-21T08:49:51;9.13;;;8.23;;
8401;SDS011;4238;48.404;9.498;2023-02-21T08:52:18;9.27;;;6.90;;
8401;SDS011;4238;48.404;9.498;2023-02-21T08:54:46;9.47;;;7.23;;
8401;SDS011;4238;48.404;9.498;2023-02-21T08:57:13;9.70;;;7.07;;
8401;SDS011;4238;48.404;9.498;2023-02-21T08:59:40;7.30;;;6.03;;
8401;SDS011;4238;48.404;9.498;2023-02-21T09:02:13;7.30;;;6.60;;
8401;SDS011;4238;48.404;9.498;2023-02-21T09:04:41;5.80;;;5.20;;
8401;SDS011;4238;48.404;9.498;2023-02-21T09:07:10;5.60;;;5.07;;
8401;SDS011;4238;48.404;9.498;2023-02-21T09:09:37;5.63;;;4.93;;
8401;SDS011;4238;48.404;9.498;2023-02-21T09:12:04;6.93;;;4.93;;
8401;SDS011;4238;48.404;9.498;2023-02-21T09:14:32;6.97;;;4.60;;
8401;SDS011;4238;48.404;9.498;2023-02-21T09:17:00;5.40;;;4.90;;
8401;SDS011;4238;48.404;9.498;2023-02-21T09:19:27;5.67;;;4.97;;
8401;SDS011;4238;48.404;9.498;2023-02-21T09:21:54;5.90;;;3.97;;
8401;SDS011;4238;48.404;9.498;2023-02-21T09:24:23;7.47;;;5.63;;
8401;SDS011;4238;48.404;9.498;2023-02-21T09:26:50;7.23;;;6.63;;
8401;SDS011;4238;48.404;9.498;2023-02-21T09:29:19;6.67;;;5.97;;
8401;SDS011;4238;48.404;9.498;2023-02-21T09:31:47;8.10;;;6.30;;
8401;SDS011;4238;48.404;9.498;2023-02-21T09:34:17;5.77;;;5.23;;
8401;SDS011;4238;48.404;9.498;2023-02-21T09:36:44;5.43;;;4.93;;
8401;SDS011;4238;48.404;9.498;2023-02-21T09:39:13;8.05;;;6.20;;
8401;SDS011;4238;48.404;9.498;2023-02-21T09:41:41;4.63;;;4.00;;
8401;SDS011;4238;48.404;9.498;2023-02-21T09:44:10;7.70;;;6.40;;
8401;SDS011;4238;48.404;9.498;2023-02-21T09:46:43;6.43;;;5.40;;
8401;SDS011;4238;48.404;9.498;2023-02-21T09:49:14;7.47;;;5.90;;
8401;SDS011;4238;48.404;9.498;2023-02-21T09:51:47;5.65;;;4.90;;
8401;SDS011;4238;48.404;9.498;2023-02-21T09:54:16;2.03;;;1.92;;
8401;SDS011;4238;48.404;9.498;2023-02-21T09:56:50;2.97;;;2.78;;
8401;SDS011;4238;48.404;9.498;2023-02-21T09:59:18;1.92;;;1.73;;
8401;SDS011;4238;48.404;9.498;2023-02-21T10:01:47;1.90;;;1.77;;
8401;SDS011;4238;48.404;9.498;2023-02-21T10:04:28;2.78;;;2.55;;
8401;SDS011;4238;48.404;9.498;2023-02-21T10:07:07;1.77;;;1.67;;
8401;SDS011;4238;48.404;9.498;2023-02-21T10:09:39;1.27;;;1.25;;
8401;SDS011;4238;48.404;9.498;2023-02-21T10:12:15;1.13;;;1.13;;
8401;SDS011;4238;48.404;9.498;2023-02-21T10:14:55;1.55;;;1.45;;
8401;SDS011;4238;48.404;9.498;2023-02-21T10:17:34;0.80;;;0.80;;
8401;SDS011;4238;48.404;9.498;2023-02-21T10:20:10;1.00;;;1.00;;
8401;SDS011;4238;48.404;9.498;2023-02-21T10:22:40;1.02;;;0.90;;
8401;SDS011;4238;48.404;9.498;2023-02-21T10:25:17;1.65;;;1.00;;
8401;SDS011;4238;48.404;9.498;2023-02-21T10:27:48;0.85;;;0.80;;
8401;SDS011;4238;48.404;9.498;2023-02-21T10:30:19;0.82;;;0.82;;
8401;SDS011;4238;48.404;9.498;2023-02-21T10:32:52;0.45;;;0.45;;
8401;SDS011;4238;48.404;9.498;2023-02-21T10:35:20;0.80;;;0.80;;
8401;SDS011;4238;48.404;9.498;2023-02-21T10:37:47;1.10;;;0.95;;
8401;SDS011;4238;48.404;9.498;2023-02-21T10:40:21;0.60;;;0.60;;
8401;SDS011;4238;48.404;9.498;2023-02-21T10:42:55;0.80;;;0.80;;
8401;SDS011;4238;48.404;9.498;2023-02-21T10:45:29;0.80;;;0.80;;
8401;SDS011;4238;48.404;9.498;2023-02-21T10:48:00;0.82;;;0.82;;
8401;SDS011;4238;48.404;9.498;2023-02-21T10:50:37;1.15;;;0.70;;
8401;SDS011;4238;48.404;9.498;2023-02-21T10:53:08;0.65;;;0.65;;
8401;SDS011;4238;48.404;9.498;2023-02-21T10:55:46;1.75;;;0.50;;
8401;SDS011;4238;48.404;9.498;2023-02-21T10:58:34;0.50;;;0.50;;
8401;SDS011;4238;48.404;9.498;2023-02-21T11:01:09;1.63;;;1.05;;
8401;SDS011;4238;48.404;9.498;2023-02-21T11:03:41;0.40;;;0.40;;
8401;SDS011;4238;48.404;9.498;2023-02-21T11:06:10;1.38;;;1.20;;
8401;SDS011;4238;48.404;9.498;2023-02-21T11:08:48;0.70;;;0.70;;
8401;SDS011;4238;48.404;9.498;2023-02-21T11:11:15;0.90;;;0.90;;
8401;SDS011;4238;48.404;9.498;2023-02-21T11:14:07;0.80;;;0.80;;
8401;SDS011;4238;48.404;9.498;2023-02-21T11:17:01;0.60;;;0.60;;
8401;SDS011;4238;48.404;9.498;2023-02-21T11:19:43;1.02;;;0.70;;
8401;SDS011;4238;48.404;9.498;2023-02-21T11:22:12;0.88;;;0.88;;
8401;SDS011;4238;48.404;9.498;2023-02-21T11:24:48;0.73;;;0.73;;
8401;SDS011;4238;48.404;9.498;2023-02-21T11:27:19;0.60;;;0.60;;
8401;SDS011;4238;48.404;9.498;2023-02-21T11:29:48;1.40;;;0.90;;
8401;SDS011;4238;48.404;9.498;2023-02-21T11:32:25;0.50;;;0.50;;
8401;SDS011;4238;48.404;9.498;2023-02-21T11:35:02;0.68;;;0.52;;
8401;SDS011;4238;48.404;9.498;2023-02-21T11:37:32;1.27;;;0.65;;
8401;SDS011;4238;48.404;9.498;2023-02-21T11:40:00;0.60;;;0.60;;
8401;SDS011;4238;48.404;9.498;2023-02-21T11:42:30;0.50;;;0.50;;
8401;SDS011;4238;48.404;9.498;2023-02-21T11:45:14;0.60;;;0.60;;
8401;SDS011;4238;48.404;9.498;2023-02-21T11:47:49;1.25;;;0.50;;
8401;SDS011;4238;48.404;9.498;2023-02-21T11:50:25;0.90;;;0.70;;
8401;SDS011;4238;48.404;9.498;2023-02-21T11:52:59;0.82;;;0.82;;
8401;SDS011;4238;48.404;9.498;2023-02-21T11:55:31;1.10;;;1.05;;
8401;SDS011;4238;48.404;9.498;2023-02-21T11:58:05;0.82;;;0.80;;
8401;SDS011;4238;48.404;9.498;2023-02-21T12:00:42;0.52;;;0.52;;
8401;SDS011;4238;48.404;9.498;2023-02-21T12:03:35;0.80;;;0.80;;
8401;SDS011;4238;48.404;9.498;2023-02-21T12:06:15;0.55;;;0.47;;
8401;SDS011;4238;48.404;9.498;2023-02-21T12:08:54;0.93;;;0.35;;
8401;SDS011;4238;48.404;9.498;2023-02-21T12:11:29;1.88;;;1.77;;
8401;SDS011;4238;48.404;9.498;2023-02-21T12:14:18;0.85;;;0.85;;
8401;SDS011;4238;48.404;9.498;2023-02-21T12:16:56;1.08;;;0.73;;
8401;SDS011;4238;48.404;9.498;2023-02-21T12:19:36;0.93;;;0.80;;
8401;SDS011;4238;48.404;9.498;2023-02-21T12:22:16;0.95;;;0.90;;
8401;SDS011;4238;48.404;9.498;2023-02-21T12:24:56;5.95;;;5.18;;
8401;SDS011;4238;48.404;9.498;2023-02-21T12:27:39;1.55;;;1.45;;
8401;SDS011;4238;48.404;9.498;2023-02-21T12:30:19;1.05;;;0.93;;
8401;SDS011;4238;48.404;9.498;2023-02-21T12:32:56;0.63;;;0.63;;
8401;SDS011;4238;48.404;9.498;2023-02-21T12:35:44;0.73;;;0.70;;
8401;SDS011;4238;48.404;9.498;2023-02-21T12:38:31;0.63;;;0.63;;
8401;SDS011;4238;48.404;9.498;2023-02-21T12:41:09;0.57;;;0.30;;
8401;SDS011;4238;48.404;9.498;2023-02-21T12:43:48;0.70;;;0.63;;
8401;SDS011;4238;48.404;9.498;2023-02-21T12:46:24;1.63;;;0.70;;
8401;SDS011;4238;48.404;9.498;2023-02-21T12:48:57;1.00;;;0.80;;
8401;SDS011;4238;48.404;9.498;2023-02-21T12:51:31;0.88;;;0.88;;
8401;SDS011;4238;48.404;9.498;2023-02-21T12:54:02;0.88;;;0.80;;
8401;SDS011;4238;48.404;9.498;2023-02-21T12:56:34;1.80;;;1.02;;
8401;SDS011;4238;48.404;9.498;2023-02-21T12:59:07;0.90;;;0.73;;
8401;SDS011;4238;48.404;9.498;2023-02-21T13:01:41;0.80;;;0.77;;
8401;SDS011;4238;48.404;9.498;2023-02-21T13:04:17;1.08;;;0.70;;
8401;SDS011;4238;48.404;9.498;2023-02-21T13:06:54;0.90;;;0.90;;
8401;SDS011;4238;48.404;9.498;2023-02-21T13:09:27;0.70;;;0.70;;
8401;SDS011;4238;48.404;9.498;2023-02-21T13:12:00;1.55;;;0.60;;
8401;SDS011;4238;48.404;9.498;2023-02-21T13:14:34;2.80;;;1.00;;
8401;SDS011;4238;48.404;9.498;2023-02-21T13:17:08;0.93;;;0.93;;
8401;SDS011;4238;48.404;9.498;2023-02-21T13:19:38;1.10;;;0.68;;
8401;SDS011;4238;48.404;9.498;2023-02-21T13:25:33;1.10;;;0.98;;
8401;SDS011;4238;48.404;9.498;2023-02-21T13:28:11;0.75;;;0.75;;
8401;SDS011;4238;48.404;9.498;2023-02-21T13:30:44;1.52;;;1.42;;
8401;SDS011;4238;48.404;9.498;2023-02-21T13:33:27;1.92;;;1.10;;
8401;SDS011;4238;48.404;9.498;2023-02-21T13:36:01;1.60;;;1.08;;
8401;SDS011;4238;48.404;9.498;2023-02-21T13:38:44;1.75;;;1.48;;
8401;SDS011;4238;48.404;9.498;2023-02-21T13:41:11;1.35;;;1.25;;
8401;SDS011;4238;48.404;9.498;2023-02-21T13:43:44;1.23;;;1.20;;
8401;SDS011;4238;48.404;9.498;2023-02-21T13:46:24;0.93;;;0.93;;
8401;SDS011;4238;48.404;9.498;2023-02-21T13:49:47;1.33;;;1.05;;
8401;SDS011;4238;48.404;9.498;2023-02-21T13:52:26;1.23;;;1.23;;
8401;SDS011;4238;48.404;9.498;2023-02-21T13:55:21;1.20;;;1.17;;
8401;SDS011;4238;48.404;9.498;2023-02-21T13:57:50;1.95;;;1.45;;
8401;SDS011;4238;48.404;9.498;2023-02-21T14:00:49;1.40;;;1.30;;
8401;SDS011;4238;48.404;9.498;2023-02-21T14:03:30;1.55;;;1.42;;
8401;SDS011;4238;48.404;9.498;2023-02-21T14:06:18;1.40;;;1.30;;
8401;SDS011;4238;48.404;9.498;2023-02-21T14:08:52;1.60;;;1.50;;
8401;SDS011;4238;48.404;9.498;2023-02-21T14:11:23;1.52;;;1.42;;
8401;SDS011;4238;48.404;9.498;2023-02-21T14:13:53;2.72;;;1.65;;
8401;SDS011;4238;48.404;9.498;2023-02-21T14:16:21;1.30;;;1.20;;
8401;SDS011;4238;48.404;9.498;2023-02-21T14:18:53;1.55;;;1.50;;
8401;SDS011;4238;48.404;9.498;2023-02-21T14:21:23;1.30;;;1.20;;
8401;SDS011;4238;48.404;9.498;2023-02-21T14:23:55;1.52;;;1.42;;
8401;SDS011;4238;48.404;9.498;2023-02-21T14:26:36;1.70;;;1.60;;
8401;SDS011;4238;48.404;9.498;2023-02-21T14:29:12;1.77;;;1.67;;
8401;SDS011;4238;48.404;9.498;2023-02-21T14:31:54;1.63;;;1.40;;
8401;SDS011;4238;48.404;9.498;2023-02-21T14:34:25;1.38;;;1.30;;
8401;SDS011;4238;48.404;9.498;2023-02-21T14:36:58;2.30;;;1.50;;
8401;SDS011;4238;48.404;9.498;2023-02-21T14:39:30;3.58;;;1.80;;
8401;SDS011;4238;48.404;9.498;2023-02-21T14:45:15;2.78;;;1.60;;
8401;SDS011;4238;48.404;9.498;2023-02-21T14:47:56;0.98;;;0.98;;
8401;SDS011;4238;48.404;9.498;2023-02-21T14:50:37;2.25;;;1.90;;
8401;SDS011;4238;48.404;9.498;2023-02-21T14:53:18;1.67;;;1.58;;
8401;SDS011;4238;48.404;9.498;2023-02-21T14:56:08;1.20;;;1.20;;
8401;SDS011;4238;48.404;9.498;2023-02-21T14:59:04;1.92;;;1.80;;
8401;SDS011;4238;48.404;9.498;2023-02-21T15:01:55;1.55;;;1.30;;
8401;SDS011;4238;48.404;9.498;2023-02-21T15:04:33;1.98;;;1.33;;
8401;SDS011;4238;48.404;9.498;2023-02-21T15:07:09;1.20;;;1.10;;
8401;SDS011;4238;48.404;9.498;2023-02-21T15:09:42;2.65;;;1.42;;
8401;SDS011;4238;48.404;9.498;2023-02-21T15:12:12;1.58;;;1.48;;
8401;SDS011;4238;48.404;9.498;2023-02-21T15:14:46;1.52;;;1.42;;
8401;SDS011;4238;48.404;9.498;2023-02-21T15:17:16;1.40;;;1.30;;
8401;SDS011;4238;48.404;9.498;2023-02-21T15:19:45;1.30;;;1.20;;
8401;SDS011;4238;48.404;9.498;2023-02-21T15:22:21;2.15;;;1.20;;
8401;SDS011;4238;48.404;9.498;2023-02-21T15:27:52;1.80;;;1.42;;
8401;SDS011;4238;48.404;9.498;2023-02-21T15:30:23;1.48;;;1.17;;
8401;SDS011;4238;48.404;9.498;2023-02-21T15:32:53;1.52;;;1.40;;
8401;SDS011;4238;48.404;9.498;2023-02-21T15:35:24;1.38;;;1.23;;
8401;SDS011;4238;48.404;9.498;2023-02-21T15:37:56;1.40;;;1.10;;
8401;SDS011;4238;48.404;9.498;2023-02-21T15:40:25;1.58;;;1.00;;
8401;SDS011;4238;48.404;9.498;2023-02-21T15:42:53;1.17;;;0.95;;
8401;SDS011;4238;48.404;9.498;2023-02-21T15:45:21;1.38;;;0.95;;
8401;SDS011;4238;48.404;9.498;2023-02-21T15:47:51;1.33;;;0.85;;
8401;SDS011;4238;48.404;9.498;2023-02-21T15:50:22;1.98;;;0.93;;
8401;SDS011;4238;48.404;9.498;2023-02-21T15:52:56;2.05;;;1.08;;
8401;SDS011;4238;48.404;9.498;2023-02-21T15:55:36;2.05;;;0.85;;
8401;SDS011;4238;48.404;9.498;2023-02-21T15:58:17;0.98;;;0.98;;
8401;SDS011;4238;48.404;9.498;2023-02-21T16:00:48;1.17;;;1.17;;
8401;SDS011;4238;48.404;9.498;2023-02-21T16:03:35;1.40;;;1.30;;
8401;SDS011;4238;48.404;9.498;2023-02-21T16:06:20;1.38;;;1.05;;
8401;SDS011;4238;48.404;9.498;2023-02-21T16:08:54;0.93;;;0.93;;
8401;SDS011;4238;48.404;9.498;2023-02-21T16:11:31;1.65;;;1.10;;